createdAt,value
2022-08-10T00:01:53.006Z,25.36
2022-08-10T00:04:24.090Z,25.35
2022-08-10T00:06:55.212Z,25.21
2022-08-10T00:09:22.910Z,25.43
2022-08-10T00:11:49.588Z,25.29
2022-08-10T00:14:16.299Z,25.17
2022-08-10T00:16:42.901Z,25.32
2022-08-10T00:19:09.757Z,25.17
2022-08-10T00:21:36.846Z,25.10
2022-08-10T00:24:04.009Z,25.05
2022-08-10T00:27:52.894Z,25.04
2022-08-10T00:29:16.949Z,25.14
2022-08-10T00:31:58.099Z,24.94
2022-08-10T00:34:26.898Z,24.92
2022-08-10T00:36:53.494Z,24.87
2022-08-10T00:39:20.218Z,24.79
2022-08-10T00:41:47.270Z,24.86
2022-08-10T00:44:34.026Z,24.84
2022-08-10T00:47:00.984Z,24.81
2022-08-10T00:49:28.407Z,24.80
2022-08-10T00:51:55.340Z,24.80
2022-08-10T00:54:25.018Z,24.87
2022-08-10T00:57:15.929Z,24.83
2022-08-10T00:59:59.407Z,24.84
2022-08-10T01:02:25.924Z,24.69
2022-08-10T01:04:59.914Z,24.78
2022-08-10T01:07:36.664Z,24.59
2022-08-10T01:10:36.879Z,24.69
2022-08-10T01:13:21.719Z,24.70
2022-08-10T01:16:25.961Z,24.39
2022-08-10T01:19:01.037Z,24.39
2022-08-10T01:21:53.913Z,24.32
2022-08-10T01:24:38.672Z,24.41
2022-08-10T01:27:27.199Z,24.29
2022-08-10T01:30:04.268Z,24.22
2022-08-10T01:32:36.835Z,24.14
2022-08-10T01:35:09.507Z,24.14
2022-08-10T01:37:54.895Z,24.06
2022-08-10T01:40:25.851Z,24.01
2022-08-10T01:42:59.556Z,23.82
2022-08-10T01:45:28.223Z,24.04
2022-08-10T01:48:16.693Z,24.06
2022-08-10T01:50:58.908Z,23.99
2022-08-10T01:53:40.334Z,23.92
2022-08-10T01:56:13.543Z,23.94
2022-08-10T01:58:42.232Z,24.00
2022-08-10T02:01:16.926Z,23.92
2022-08-10T02:04:04.683Z,23.68
2022-08-10T02:06:37.431Z,23.68
2022-08-10T02:09:07.638Z,23.67
2022-08-10T02:12:05.389Z,23.75
2022-08-10T02:14:33.307Z,23.66
2022-08-10T02:17:03.369Z,23.60
2022-08-10T02:19:31.464Z,23.52
2022-08-10T02:22:35.165Z,23.42
2022-08-10T02:24:47.717Z,23.36
2022-08-10T02:27:16.246Z,23.42
2022-08-10T02:29:44.605Z,23.50
2022-08-10T02:32:23.801Z,23.52
2022-08-10T02:35:06.470Z,23.52
2022-08-10T02:37:37.439Z,23.47
2022-08-10T02:40:04.856Z,23.57
2022-08-10T02:45:18.407Z,23.38
2022-08-10T02:45:51.406Z,23.21
2022-08-10T02:48:38.757Z,23.17
2022-08-10T02:51:13.686Z,23.11
2022-08-10T02:53:56.918Z,23.23
2022-08-10T02:56:30.865Z,23.14
2022-08-10T02:59:05.642Z,23.28
2022-08-10T03:01:37.037Z,23.37
2022-08-10T03:04:11.916Z,23.16
2022-08-10T03:06:43.828Z,23.07
2022-08-10T03:09:15.211Z,22.98
2022-08-10T03:12:34.857Z,23.03
2022-08-10T03:14:34.189Z,22.95
2022-08-10T03:17:02.252Z,23.08
2022-08-10T03:20:34.754Z,22.97
2022-08-10T03:22:19.749Z,23.02
2022-08-10T03:24:47.072Z,23.03
2022-08-10T03:27:14.492Z,22.96
2022-08-10T03:30:31.581Z,23.03
2022-08-10T03:32:28.811Z,22.93
2022-08-10T03:34:56.192Z,22.98
2022-08-10T03:37:22.753Z,23.01
2022-08-10T03:39:51.278Z,22.95
2022-08-10T03:42:20.332Z,22.94
2022-08-10T03:44:50.545Z,22.80
2022-08-10T03:47:20.143Z,22.75
2022-08-10T03:49:51.231Z,22.82
2022-08-10T03:52:19.278Z,22.79
2022-08-10T03:54:46.601Z,22.63
2022-08-10T03:57:13.508Z,22.59
2022-08-10T03:59:40.298Z,22.56
2022-08-10T04:02:44.345Z,22.67
2022-08-10T04:04:53.667Z,22.73
2022-08-10T04:07:21.010Z,22.64
2022-08-10T04:09:55.534Z,22.73
2022-08-10T04:12:23.620Z,22.69
2022-08-10T04:14:52.845Z,22.66
2022-08-10T04:18:02.967Z,22.47
2022-08-10T04:20:34.265Z,22.39
2022-08-10T04:23:06.212Z,22.43
2022-08-10T04:25:33.825Z,22.48
2022-08-10T04:28:00.750Z,22.49
2022-08-10T04:30:31.597Z,22.57
2022-08-10T04:32:59.905Z,22.48
2022-08-10T04:35:29.274Z,22.51
2022-08-10T04:37:57.144Z,22.51
2022-08-10T04:40:29.575Z,22.58
2022-08-10T04:43:12.426Z,22.73
2022-08-10T04:45:49.889Z,22.66
2022-08-10T04:48:40.360Z,22.85
2022-08-10T04:51:11.165Z,22.93
2022-08-10T04:54:05.495Z,23.02
2022-08-10T04:56:31.610Z,22.85
2022-08-10T04:58:59.285Z,22.83
2022-08-10T05:01:25.927Z,22.92
2022-08-10T05:04:35.548Z,22.92
2022-08-10T05:06:39.147Z,23.17
2022-08-10T05:09:05.817Z,23.19
2022-08-10T05:11:32.441Z,23.16
2022-08-10T05:13:59.017Z,23.37
2022-08-10T05:16:32.317Z,23.22
2022-08-10T05:18:59.202Z,23.20
2022-08-10T05:22:03.956Z,23.22
2022-08-10T05:24:12.332Z,23.39
2022-08-10T05:26:42.466Z,23.38
2022-08-10T05:29:25.654Z,23.46
2022-08-10T05:31:52.576Z,23.72
2022-08-10T05:34:20.717Z,23.77
2022-08-10T05:36:48.457Z,23.70
2022-08-10T05:39:15.178Z,23.63
2022-08-10T05:41:46.102Z,23.70
2022-08-10T05:44:15.045Z,23.91
2022-08-10T05:46:41.517Z,23.94
2022-08-10T05:49:08.103Z,24.20
2022-08-10T05:51:34.828Z,24.37
2022-08-10T05:54:06.819Z,24.78
2022-08-10T05:56:54.937Z,25.27
2022-08-10T06:00:32.895Z,25.83
2022-08-10T06:02:59.209Z,26.61
2022-08-10T06:05:30.613Z,26.96
2022-08-10T06:08:13.415Z,27.46
2022-08-10T06:12:26.087Z,27.95
2022-08-10T06:13:59.643Z,28.30
2022-08-10T06:16:33.323Z,28.77
2022-08-10T06:19:02.318Z,29.00
2022-08-10T06:21:28.972Z,29.16
2022-08-10T06:23:59.351Z,29.46
2022-08-10T06:26:25.983Z,29.76
2022-08-10T06:29:03.781Z,29.93
2022-08-10T06:31:46.644Z,30.10
2022-08-10T06:34:20.227Z,30.37
2022-08-10T06:36:47.892Z,30.42
2022-08-10T06:39:33.042Z,30.74
2022-08-10T06:42:16.620Z,30.92
2022-08-10T06:44:52.798Z,31.20
2022-08-10T06:47:23.285Z,30.76
2022-08-10T06:49:59.973Z,31.11
2022-08-10T06:52:31.310Z,31.27
2022-08-10T06:55:00.646Z,31.13
2022-08-10T06:57:31.366Z,30.97
2022-08-10T07:00:01.028Z,31.11
2022-08-10T07:02:52.809Z,30.92
2022-08-10T07:05:22.243Z,31.14
2022-08-10T07:07:52.493Z,30.84
2022-08-10T07:10:22.429Z,30.62
2022-08-10T07:12:51.263Z,30.72
2022-08-10T07:15:19.648Z,31.15
2022-08-10T07:17:47.604Z,31.56
2022-08-10T07:20:18.896Z,31.84
2022-08-10T07:23:50.631Z,32.23
2022-08-10T07:25:40.220Z,32.25
2022-08-10T07:28:08.475Z,32.29
2022-08-10T07:30:39.363Z,32.84
2022-08-10T07:33:07.551Z,32.83
2022-08-10T07:35:43.389Z,32.95
2022-08-10T07:38:18.810Z,32.12
2022-08-10T07:40:48.677Z,31.56
2022-08-10T07:43:17.694Z,31.28
2022-08-10T07:45:46.445Z,31.52
2022-08-10T07:48:34.192Z,32.03
2022-08-10T07:51:02.946Z,32.19
2022-08-10T07:53:38.523Z,32.14
2022-08-10T07:56:16.941Z,31.96
2022-08-10T07:59:16.008Z,31.73
2022-08-10T08:01:53.520Z,32.04
2022-08-10T08:04:22.842Z,32.07
2022-08-10T08:06:51.140Z,32.01
2022-08-10T08:09:20.552Z,31.94
2022-08-10T08:11:50.142Z,31.96
2022-08-10T08:14:18.954Z,31.93
2022-08-10T08:16:48.902Z,31.82
2022-08-10T08:19:36.993Z,31.90
2022-08-10T08:24:05.335Z,31.50
2022-08-10T08:24:55.928Z,31.98
2022-08-10T08:27:24.025Z,31.91
2022-08-10T08:29:52.254Z,31.61
2022-08-10T08:32:25.007Z,31.41
2022-08-10T08:34:57.914Z,31.61
2022-08-10T08:38:32.361Z,31.46
2022-08-10T08:40:29.286Z,31.44
2022-08-10T08:43:11.111Z,31.59
2022-08-10T08:46:08.533Z,31.54
2022-08-10T08:48:53.124Z,31.66
2022-08-10T08:52:08.200Z,31.73
2022-08-10T08:54:42.581Z,31.78
2022-08-10T08:57:50.062Z,31.57
2022-08-10T09:00:33.490Z,31.64
2022-08-10T09:03:28.106Z,31.69
2022-08-10T09:06:09.816Z,31.96
2022-08-10T09:08:54.432Z,32.22
2022-08-10T09:11:26.667Z,31.93
2022-08-10T09:14:15.470Z,31.81
2022-08-10T09:17:21.970Z,32.24
2022-08-10T09:19:51.642Z,32.46
2022-08-10T09:22:33.357Z,32.68
2022-08-10T09:25:45.162Z,32.79
2022-08-10T09:28:26.754Z,32.88
2022-08-10T09:31:23.300Z,32.60
2022-08-10T09:36:24.246Z,32.62
2022-08-10T09:37:42.473Z,32.60
2022-08-10T09:41:06.341Z,32.44
2022-08-10T09:43:38.591Z,32.11
2022-08-10T09:46:33.335Z,32.08
2022-08-10T09:49:12.018Z,31.95
2022-08-10T09:52:07.540Z,32.01
2022-08-10T09:54:37.195Z,31.98
2022-08-10T09:57:41.523Z,31.83
2022-08-10T10:00:14.064Z,31.81
2022-08-10T10:03:07.157Z,31.74
2022-08-10T10:05:51.189Z,31.72
2022-08-10T10:08:22.094Z,31.97
2022-08-10T10:11:00.795Z,32.29
2022-08-10T10:13:48.931Z,32.48
2022-08-10T10:16:46.419Z,32.53
2022-08-10T10:19:42.621Z,32.58
2022-08-10T10:22:27.605Z,32.25
2022-08-10T10:25:50.359Z,32.58
2022-08-10T10:29:11.513Z,32.39
2022-08-10T10:31:30.639Z,32.27
2022-08-10T10:33:57.147Z,32.35
2022-08-10T10:36:24.706Z,32.18
2022-08-10T10:38:54.568Z,32.00
2022-08-10T10:42:03.942Z,32.19
2022-08-10T10:44:42.151Z,32.15
2022-08-10T10:47:35.250Z,32.32
2022-08-10T10:50:01.840Z,32.38
2022-08-10T10:53:06.133Z,32.53
2022-08-10T10:55:32.665Z,32.22
2022-08-10T10:58:28.197Z,32.13
2022-08-10T11:01:22.995Z,32.40
2022-08-10T11:04:01.353Z,32.43
2022-08-10T11:06:50.890Z,32.46
2022-08-10T11:10:01.217Z,32.28
2022-08-10T11:12:37.408Z,32.13
2022-08-10T11:15:16.517Z,32.18
2022-08-10T11:17:50.477Z,31.75
2022-08-10T11:20:43.053Z,31.37
2022-08-10T11:23:44.866Z,31.34
2022-08-10T11:26:42.269Z,31.52
2022-08-10T11:29:33.703Z,31.74
2022-08-10T11:32:06.869Z,31.86
2022-08-10T11:35:12.835Z,31.96
2022-08-10T11:38:32.211Z,31.95
2022-08-10T11:41:05.576Z,31.83
2022-08-10T11:43:54.335Z,31.89
2022-08-10T11:46:46.615Z,31.93
2022-08-10T11:49:23.061Z,32.09
2022-08-10T11:51:55.331Z,31.91
2022-08-10T11:54:31.364Z,32.15
2022-08-10T11:57:02.483Z,32.08
2022-08-10T11:59:58.545Z,31.98
2022-08-10T12:02:34.067Z,31.78
2022-08-10T12:05:10.957Z,31.47
2022-08-10T12:10:07.011Z,31.31
2022-08-10T12:10:31.989Z,31.45
2022-08-10T12:13:05.120Z,31.49
2022-08-10T12:15:48.360Z,31.67
2022-08-10T12:18:27.070Z,31.81
2022-08-10T12:21:02.131Z,31.72
2022-08-10T12:23:48.377Z,32.04
2022-08-10T12:26:38.050Z,32.06
2022-08-10T12:29:17.299Z,31.55
2022-08-10T12:32:12.346Z,31.43
2022-08-10T12:34:50.778Z,31.36
2022-08-10T12:37:24.248Z,31.13
2022-08-10T12:40:31.224Z,30.72
2022-08-10T12:43:01.539Z,30.77
2022-08-10T12:46:06.752Z,30.57
2022-08-10T12:48:48.488Z,30.54
2022-08-10T12:51:22.556Z,30.48
2022-08-10T12:53:56.551Z,30.41
2022-08-10T12:56:30.288Z,30.26
2022-08-10T12:59:01.674Z,30.25
2022-08-10T13:02:07.011Z,30.29
2022-08-10T13:04:37.451Z,30.32
2022-08-10T13:07:05.638Z,30.31
2022-08-10T13:09:33.397Z,30.32
2022-08-10T13:12:36.431Z,30.55
2022-08-10T13:15:45.100Z,30.68
2022-08-10T13:18:05.532Z,30.64
2022-08-10T13:20:37.891Z,30.60
2022-08-10T13:23:14.555Z,30.76
2022-08-10T13:25:45.601Z,30.92
2022-08-10T13:54:53.423Z,30.21
2022-08-10T13:57:25.488Z,30.04
2022-08-10T14:00:34.050Z,29.90
2022-08-10T14:02:50.369Z,29.60
2022-08-10T14:05:29.649Z,29.52
2022-08-10T14:08:01.172Z,29.59
2022-08-10T14:11:08.397Z,29.42
2022-08-10T14:13:22.031Z,29.34
2022-08-10T14:15:50.038Z,29.20
2022-08-10T14:18:17.963Z,29.07
2022-08-10T14:20:46.200Z,28.73
2022-08-10T14:23:14.414Z,28.59
2022-08-10T14:25:51.051Z,28.50
2022-08-10T14:28:26.308Z,28.25
2022-08-10T14:31:01.675Z,28.22
2022-08-10T14:33:30.927Z,28.24
2022-08-10T14:36:20.845Z,28.29
2022-08-10T14:38:45.509Z,28.31
2022-08-10T14:42:01.953Z,28.29
2022-08-10T14:44:13.712Z,28.41
2022-08-10T14:46:51.580Z,28.32
2022-08-10T14:49:26.338Z,28.12
2022-08-10T14:52:00.852Z,28.00
2022-08-10T14:54:29.819Z,27.91
2022-08-10T14:57:11.392Z,28.15
2022-08-10T15:00:22.524Z,28.06
2022-08-10T15:02:38.462Z,28.18
2022-08-10T15:05:10.602Z,28.13
2022-08-10T15:07:39.627Z,28.03
2022-08-10T15:10:11.003Z,28.11
2022-08-10T15:12:40.444Z,27.94
2022-08-10T15:15:16.508Z,27.67
2022-08-10T15:17:52.937Z,27.47
2022-08-10T15:20:23.400Z,27.28
2022-08-10T15:22:55.757Z,27.06
2022-08-10T15:25:26.007Z,27.03
2022-08-10T15:28:06.145Z,26.82
2022-08-10T15:30:44.455Z,26.55
2022-08-10T15:34:02.906Z,26.36
2022-08-10T15:36:41.753Z,26.18
2022-08-10T15:40:25.089Z,25.93
2022-08-10T15:42:17.526Z,26.04
2022-08-10T15:44:46.167Z,25.97
2022-08-10T15:47:21.521Z,25.80
2022-08-10T15:49:52.667Z,25.54
2022-08-10T15:53:00.110Z,25.51
2022-08-10T15:55:43.030Z,25.29
2022-08-10T15:58:19.334Z,25.16
2022-08-10T16:00:49.912Z,24.98
2022-08-10T16:03:59.812Z,24.76
2022-08-10T16:06:41.793Z,24.86
2022-08-10T16:10:26.455Z,24.86
2022-08-10T16:12:13.102Z,24.68
2022-08-10T16:14:44.908Z,24.49
2022-08-10T16:17:13.257Z,24.34
2022-08-10T16:19:56.783Z,23.99
2022-08-10T16:22:35.853Z,23.95
2022-08-10T16:25:14.140Z,24.03
2022-08-10T16:27:43.078Z,23.75
2022-08-10T16:30:10.337Z,23.71
2022-08-10T16:32:38.343Z,24.00
2022-08-10T16:35:09.562Z,23.73
2022-08-10T16:37:57.804Z,23.64
2022-08-10T16:40:28.348Z,23.59
2022-08-10T16:42:56.148Z,23.62
2022-08-10T16:45:31.125Z,23.56
2022-08-10T16:47:58.386Z,23.54
2022-08-10T16:50:32.521Z,23.52
2022-08-10T16:53:02.342Z,23.55
2022-08-10T16:55:47.386Z,23.47
2022-08-10T16:58:18.091Z,23.61
2022-08-10T17:00:45.621Z,23.79
2022-08-10T17:03:22.589Z,23.66
2022-08-10T17:06:10.870Z,23.45
2022-08-10T17:08:48.233Z,23.57
2022-08-10T17:11:21.742Z,23.58
2022-08-10T17:13:49.147Z,23.50
2022-08-10T17:16:17.140Z,23.44
2022-08-10T17:18:47.029Z,23.65
2022-08-10T17:21:22.291Z,23.63
2022-08-10T17:23:53.545Z,23.62
2022-08-10T17:26:35.293Z,23.46
2022-08-10T17:29:53.308Z,23.21
2022-08-10T17:32:06.165Z,23.16
2022-08-10T17:34:44.392Z,23.14
2022-08-10T17:37:18.008Z,23.23
2022-08-10T17:39:49.973Z,22.89
2022-08-10T17:42:21.739Z,22.98
2022-08-10T17:44:51.175Z,23.18
2022-08-10T17:47:19.371Z,23.29
2022-08-10T17:49:47.127Z,23.18
2022-08-10T17:52:21.041Z,23.20
2022-08-10T17:54:54.734Z,23.36
2022-08-10T17:57:23.975Z,23.32
2022-08-10T17:59:52.561Z,23.36
2022-08-10T18:02:24.174Z,23.53
2022-08-10T18:04:53.452Z,23.62
2022-08-10T18:07:23.118Z,23.54
2022-08-10T18:09:54.944Z,23.52
2022-08-10T18:12:36.118Z,23.47
2022-08-10T18:15:13.233Z,23.25
2022-08-10T18:17:45.007Z,23.17
2022-08-10T18:20:14.478Z,23.25
2022-08-10T18:22:47.435Z,23.22
2022-08-10T18:25:20.705Z,23.24
2022-08-10T18:28:01.156Z,23.35
2022-08-10T18:30:45.154Z,23.35
2022-08-10T18:33:14.751Z,23.20
2022-08-10T18:35:43.802Z,23.24
2022-08-10T18:38:12.715Z,23.45
2022-08-10T18:40:43.424Z,23.32
2022-08-10T18:44:07.798Z,23.32
2022-08-10T18:46:00.241Z,23.19
2022-08-10T18:48:49.564Z,23.33
2022-08-10T18:51:24.585Z,23.18
2022-08-10T18:53:57.548Z,23.28
2022-08-10T18:56:42.416Z,23.24
2022-08-10T18:59:20.917Z,23.05
2022-08-10T19:02:12.125Z,23.05
2022-08-10T19:05:31.131Z,23.13
2022-08-10T19:08:31.076Z,22.94
2022-08-10T19:11:35.549Z,22.90
2022-08-10T19:14:25.482Z,22.81
2022-08-10T19:17:13.543Z,22.68
2022-08-10T19:20:33.668Z,22.73
2022-08-10T19:23:10.813Z,22.82
2022-08-10T19:26:38.074Z,22.68
2022-08-10T19:28:57.404Z,22.75
2022-08-10T19:31:23.943Z,22.59
2022-08-10T19:34:28.877Z,22.58
2022-08-10T19:37:15.318Z,22.44
2022-08-10T19:39:53.114Z,22.47
2022-08-10T19:42:39.213Z,22.34
2022-08-10T19:46:00.557Z,22.28
2022-08-10T19:48:47.528Z,22.50
2022-08-10T19:51:20.131Z,22.27
2022-08-10T19:53:58.262Z,22.18
2022-08-10T19:57:06.154Z,22.22
2022-08-10T20:00:19.451Z,22.27
2022-08-10T20:03:14.021Z,22.26
2022-08-10T20:06:22.538Z,21.86
2022-08-10T20:09:06.760Z,21.84
2022-08-10T20:11:56.626Z,21.85
2022-08-10T20:14:33.643Z,21.97
2022-08-10T20:17:07.796Z,22.08
2022-08-10T20:19:52.858Z,22.11
2022-08-10T20:22:28.604Z,22.07
2022-08-10T20:25:12.626Z,22.04
2022-08-10T20:28:00.105Z,22.19
2022-08-10T20:30:31.728Z,22.04
2022-08-10T20:33:15.171Z,21.86
2022-08-10T20:36:02.463Z,21.94
2022-08-10T20:38:40.974Z,21.98
2022-08-10T20:41:21.091Z,22.17
2022-08-10T20:44:03.467Z,22.14
2022-08-10T20:46:50.447Z,22.22
2022-08-10T20:49:33.215Z,22.04
2022-08-10T20:52:02.912Z,22.05
2022-08-10T20:54:34.986Z,22.15
2022-08-10T20:57:54.098Z,22.16
2022-08-10T21:00:23.035Z,22.21
2022-08-10T21:03:08.365Z,22.13
2022-08-10T21:06:03.233Z,22.04
2022-08-10T21:09:05.286Z,22.17
2022-08-10T21:11:50.130Z,22.19
2022-08-10T21:14:55.090Z,22.00
2022-08-10T21:17:52.532Z,22.07
2022-08-10T21:20:56.626Z,22.19
2022-08-10T21:23:30.625Z,22.20
2022-08-10T21:26:09.394Z,22.13
2022-08-10T21:28:44.859Z,22.04
2022-08-10T21:31:41.320Z,22.06
2022-08-10T21:34:35.246Z,21.82
2022-08-10T21:37:19.574Z,21.94
2022-08-10T21:40:34.795Z,21.82
2022-08-10T21:43:44.701Z,21.83
2022-08-10T21:46:55.014Z,21.96
2022-08-10T21:50:07.039Z,21.83
2022-08-10T21:53:00.838Z,21.70
2022-08-10T21:56:42.323Z,21.90
2022-08-10T21:59:58.178Z,21.90
2022-08-10T22:02:50.116Z,21.79
2022-08-10T22:05:42.721Z,21.88
2022-08-10T22:08:33.641Z,21.84
2022-08-10T22:11:20.203Z,21.87
2022-08-10T22:14:09.410Z,21.94
2022-08-10T22:17:03.659Z,21.84
2022-08-10T22:19:51.892Z,21.76
2022-08-10T22:22:56.091Z,21.74
2022-08-10T22:26:08.310Z,21.79
2022-08-10T22:29:42.959Z,21.69
2022-08-10T22:32:28.158Z,21.68
2022-08-10T22:35:50.464Z,21.62
2022-08-10T22:39:05.482Z,21.43
2022-08-10T22:42:29.377Z,21.35
2022-08-10T22:45:36.371Z,21.28
2022-08-10T22:48:23.449Z,21.25
2022-08-10T22:50:57.506Z,21.30
2022-08-10T22:53:26.557Z,21.28
2022-08-10T22:56:14.947Z,21.01
2022-08-10T22:58:45.394Z,20.94
2022-08-10T23:01:42.132Z,21.12
2022-08-10T23:04:38.353Z,21.24
2022-08-10T23:07:13.311Z,21.26
2022-08-10T23:09:42.105Z,21.17
2022-08-10T23:12:38.257Z,20.96
2022-08-10T23:15:27.479Z,21.08
2022-08-10T23:18:14.657Z,21.19
2022-08-10T23:20:43.493Z,21.07
2022-08-10T23:23:23.597Z,21.18
2022-08-10T23:25:57.106Z,21.31
2022-08-10T23:28:39.343Z,21.43
2022-08-10T23:31:14.651Z,21.53
2022-08-10T23:33:42.587Z,21.50
2022-08-10T23:36:34.161Z,21.57
2022-08-10T23:39:25.806Z,21.60
2022-08-10T23:41:59.740Z,21.40
2022-08-10T23:44:42.637Z,21.39
2022-08-10T23:47:12.586Z,21.58
2022-08-10T23:49:40.150Z,21.57
2022-08-10T23:52:21.991Z,21.44
2022-08-10T23:54:54.673Z,21.48
2022-08-10T23:57:23.702Z,21.23
2022-08-10T23:59:54.158Z,21.04
